Kimble County Airport Junction US
ICAO: KJCT
IATA: JCT
Category: Medium
Scheduled Services: No

Elevation: 1749 ft
TransAlt. 18000 ft.

Airport Communications:
ASOS:119.275
HOUSTON CNTR:125.75
SAN ANGELO RDO:122.3
CTAF/UNICOM:122.8

KJCT Zoom In..

Runways:

(A) RW 08 length 2255 ft width 130 ft
---- / hdg 84

(B) RW 17 length 5004 ft width 75 ft
---- / hdg 172

(C) RW 26 length 2255 ft width 130 ft
---- / hdg 264

(D) RW 35 length 5004 ft width 75 ft
---- / hdg 352

Location; KJCT
Day. 16 / Time. 17.51 Zulu
* Altimeter: 30.09
* Temperature: 34° c. 93.2°f.
* Wind from: 140° Speed 05 kn.
Dewpoint: 16° c.
Visibility: 9 Statute Miles.
Clouds: Clear (automated report).

KJCT 161751Z AUTO 14005KT 9SM CLR 34/16 A3009 RMK AO2 SLP146 T03440161 10344 20239 58004


Wind From 140°
Speed 05 kn.

 
 
jpsmedia.com for Web Design worldairports.se 2018   terms of use